Time;durP1;ratioP1;P1;durP2;ratioP2;P2;SDS_P1;SDS_P2;PMS_P1;PMS_P2;Temp;Humidity;BMP_temperature;BMP_pressure;BME280_temperature;BME280_humidity;BME280_pressure;Samples;Min_cycle;Max_cycle;Signal;HPM_P1;HPM_P2
2022/07/08 00:00:38;;;;;;;0.40;0.40;;;13.50;99.90;;;;;;5037330;28;20854;-66
2022/07/08 00:03:04;;;;;;;0.40;0.40;;;13.40;99.90;;;;;;5037663;28;20286;-66
2022/07/08 00:05:30;;;;;;;0.30;0.30;;;13.40;99.90;;;;;;5054780;28;20558;-67
2022/07/08 00:07:56;;;;;;;0.40;0.40;;;13.50;99.90;;;;;;5055532;28;20185;-66
2022/07/08 00:10:23;;;;;;;0.40;0.40;;;13.50;99.90;;;;;;5054684;28;20284;-66
2022/07/08 00:12:48;;;;;;;0.40;0.40;;;13.50;99.90;;;;;;5055030;28;20217;-66
2022/07/08 00:15:14;;;;;;;0.30;0.30;;;13.50;99.90;;;;;;5054400;28;20201;-66
2022/07/08 00:17:40;;;;;;;0.30;0.30;;;13.60;99.90;;;;;;5054069;28;20197;-67
2022/07/08 00:20:06;;;;;;;0.30;0.30;;;13.60;99.90;;;;;;5053940;28;20233;-66
2022/07/08 00:22:33;;;;;;;3.95;0.77;;;13.60;99.90;;;;;;5054098;28;20665;-66
2022/07/08 00:24:59;;;;;;;0.40;0.40;;;13.60;99.90;;;;;;5054606;28;20653;-66
2022/07/08 00:27:24;;;;;;;0.55;0.55;;;13.60;99.90;;;;;;5053945;28;20197;-66
2022/07/08 00:29:50;;;;;;;0.40;0.40;;;13.60;99.90;;;;;;5054176;28;20194;-66
2022/07/08 00:32:16;;;;;;;0.30;0.30;;;13.60;99.90;;;;;;5054509;28;20535;-66
2022/07/08 00:34:42;;;;;;;0.45;0.45;;;13.70;99.90;;;;;;5054282;28;20197;-66
2022/07/08 00:37:08;;;;;;;0.30;0.30;;;13.70;99.90;;;;;;5054194;28;20320;-66
2022/07/08 00:39:33;;;;;;;0.30;0.30;;;13.80;99.90;;;;;;5054031;28;20197;-67
2022/07/08 00:42:00;;;;;;;0.30;0.30;;;13.80;99.90;;;;;;5054171;28;20778;-66
2022/07/08 00:44:26;;;;;;;0.40;0.40;;;13.80;99.90;;;;;;5053883;28;20204;-66
2022/07/08 00:46:52;;;;;;;0.30;0.30;;;13.80;99.90;;;;;;5054229;28;20194;-68
2022/07/08 00:49:18;;;;;;;0.60;0.60;;;13.80;99.90;;;;;;5036078;28;20197;-66
2022/07/08 00:51:45;;;;;;;0.50;0.50;;;13.60;99.90;;;;;;5053577;28;20268;-66
2022/07/08 00:54:14;;;;;;;12.13;0.68;;;13.50;99.90;;;;;;5053777;28;20198;-66
2022/07/08 00:56:41;;;;;;;0.68;0.68;;;13.40;99.90;;;;;;5053546;28;20189;-66
2022/07/08 00:59:09;;;;;;;0.30;0.30;;;13.40;99.90;;;;;;5053788;28;20194;-65
2022/07/08 01:01:35;;;;;;;0.30;0.30;;;13.40;99.90;;;;;;5053547;28;20255;-66
2022/07/08 01:04:02;;;;;;;0.32;0.32;;;13.30;99.90;;;;;;5054615;28;20197;-66
2022/07/08 01:06:27;;;;;;;0.30;0.30;;;13.30;99.90;;;;;;5053426;28;20189;-66
2022/07/08 01:08:54;;;;;;;0.30;0.30;;;13.40;99.90;;;;;;5054210;28;20679;-67
2022/07/08 01:11:19;;;;;;;0.40;0.40;;;13.30;99.90;;;;;;5053767;28;20208;-67
2022/07/08 01:13:47;;;;;;;0.35;0.35;;;13.30;99.90;;;;;;5054330;28;20567;-67
2022/07/08 01:16:13;;;;;;;0.38;0.38;;;13.20;99.90;;;;;;5053791;28;20542;-67
2022/07/08 01:18:40;;;;;;;0.40;0.40;;;13.30;99.90;;;;;;5054180;28;20326;-66
2022/07/08 01:21:06;;;;;;;0.30;0.30;;;13.40;99.90;;;;;;5053694;28;20316;-67
2022/07/08 01:23:32;;;;;;;0.30;0.30;;;13.40;99.90;;;;;;5053369;28;20778;-66
2022/07/08 01:25:59;;;;;;;0.32;0.32;;;13.40;99.90;;;;;;5054115;28;20185;-67
2022/07/08 01:28:25;;;;;;;0.30;0.30;;;13.50;99.90;;;;;;5053744;28;20193;-67
2022/07/08 01:30:51;;;;;;;0.30;0.30;;;13.50;99.90;;;;;;5053728;28;20188;-67
2022/07/08 01:33:17;;;;;;;0.20;0.20;;;13.60;99.90;;;;;;5053366;28;20284;-67
2022/07/08 01:35:42;;;;;;;0.40;0.40;;;13.70;99.90;;;;;;5052894;28;20269;-67
2022/07/08 01:38:08;;;;;;;0.30;0.30;;;13.80;99.90;;;;;;5053495;28;20759;-67
2022/07/08 01:40:34;;;;;;;0.30;0.30;;;13.80;99.90;;;;;;5053063;28;20274;-67
2022/07/08 01:42:59;;;;;;;38.08;0.82;;;13.70;99.90;;;;;;5035722;28;20224;-67
2022/07/08 01:45:25;;;;;;;0.35;0.35;;;13.50;99.90;;;;;;5053120;28;20201;-69
2022/07/08 01:47:51;;;;;;;0.30;0.30;;;13.40;99.90;;;;;;5035843;28;20197;-68
2022/07/08 01:50:16;;;;;;;0.32;0.32;;;13.30;99.90;;;;;;5035290;28;20239;-67
2022/07/08 01:52:42;;;;;;;0.40;0.40;;;13.20;99.90;;;;;;5053705;28;20625;-67
2022/07/08 01:55:08;;;;;;;0.47;0.47;;;13.10;99.90;;;;;;5053326;28;20642;-68
2022/07/08 01:57:34;;;;;;;0.40;0.40;;;13.20;99.90;;;;;;5052763;28;20211;-67
2022/07/08 02:00:00;;;;;;;0.35;0.35;;;13.40;99.90;;;;;;5052819;28;20201;-67
2022/07/08 02:02:26;;;;;;;0.40;0.40;;;13.40;99.90;;;;;;5033219;28;20235;-67
2022/07/08 02:04:52;;;;;;;0.40;0.40;;;13.50;99.90;;;;;;5052929;28;20647;-68
2022/07/08 02:07:18;;;;;;;0.55;0.43;;;13.60;99.90;;;;;;5034515;28;20567;-68
2022/07/08 02:09:43;;;;;;;0.40;0.40;;;13.70;99.90;;;;;;5033222;28;20212;-67
2022/07/08 02:12:19;;;;;;;0.40;0.40;;;13.90;99.90;;;;;;5033058;28;20209;-67
2022/07/08 02:14:51;;;;;;;0.50;0.50;;;13.80;99.90;;;;;;5032865;28;20208;-67
2022/07/08 02:17:20;;;;;;;0.82;0.82;;;13.90;99.90;;;;;;5032989;28;20201;-69
2022/07/08 02:19:46;;;;;;;0.30;0.30;;;13.90;99.90;;;;;;5032483;28;20677;-67
2022/07/08 02:22:12;;;;;;;0.40;0.40;;;13.80;99.90;;;;;;5032615;28;20202;-66
2022/07/08 02:24:38;;;;;;;0.40;0.40;;;13.70;99.90;;;;;;5033016;28;20194;-67
2022/07/08 02:27:05;;;;;;;0.40;0.40;;;13.60;99.90;;;;;;5032837;28;20737;-67
2022/07/08 02:29:31;;;;;;;0.30;0.30;;;13.60;99.90;;;;;;5032257;28;20190;-67
2022/07/08 02:31:57;;;;;;;0.30;0.30;;;13.50;99.90;;;;;;5032945;28;20190;-67
2022/07/08 02:34:23;;;;;;;0.35;0.35;;;13.40;99.90;;;;;;5032640;28;20277;-67
2022/07/08 02:36:49;;;;;;;0.38;0.38;;;13.50;99.90;;;;;;5042842;28;20232;-68
2022/07/08 02:39:15;;;;;;;0.40;0.40;;;13.70;99.90;;;;;;5052408;28;20190;-68
2022/07/08 02:41:41;;;;;;;0.40;0.40;;;13.90;99.90;;;;;;5052384;28;20251;-67
2022/07/08 02:44:07;;;;;;;0.30;0.30;;;14.00;99.90;;;;;;5052183;28;20185;-67
2022/07/08 02:46:37;;;;;;;4.07;1.00;;;14.00;99.90;;;;;;5051678;28;20196;-67
2022/07/08 02:49:03;;;;;;;0.30;0.30;;;14.00;99.90;;;;;;5032434;28;20225;-68
2022/07/08 02:51:28;;;;;;;0.40;0.40;;;13.80;99.90;;;;;;5032560;28;20747;-67
2022/07/08 02:53:54;;;;;;;0.35;0.35;;;13.70;99.90;;;;;;5032418;28;20220;-68
2022/07/08 02:56:20;;;;;;;0.40;0.40;;;13.60;99.90;;;;;;5032155;28;20200;-67
2022/07/08 02:58:46;;;;;;;0.40;0.40;;;13.40;99.90;;;;;;5021497;28;20670;-67
2022/07/08 03:01:11;;;;;;;0.40;0.40;;;13.30;99.90;;;;;;5050932;28;20312;-67
2022/07/08 03:03:37;;;;;;;0.40;0.40;;;13.40;99.90;;;;;;5042177;28;20710;-67
2022/07/08 03:06:03;;;;;;;0.40;0.40;;;13.30;99.90;;;;;;5039707;28;20236;-67
2022/07/08 03:08:28;;;;;;;0.57;0.50;;;13.30;99.90;;;;;;5052254;28;20201;-67
2022/07/08 03:10:54;;;;;;;0.32;0.32;;;13.20;99.90;;;;;;5051936;28;20194;-67
2022/07/08 03:13:20;;;;;;;0.32;0.32;;;13.20;99.90;;;;;;5051821;28;20548;-67
2022/07/08 03:15:46;;;;;;;0.30;0.30;;;13.20;99.90;;;;;;5051716;28;20197;-67
2022/07/08 03:18:11;;;;;;;0.40;0.40;;;13.20;99.90;;;;;;5053522;28;20189;-66
2022/07/08 03:20:37;;;;;;;0.40;0.40;;;13.40;99.90;;;;;;5055381;28;20617;-67
2022/07/08 03:23:03;;;;;;;1.35;0.75;;;13.40;99.90;;;;;;5055598;28;20191;-67
2022/07/08 03:25:29;;;;;;;0.40;0.40;;;13.40;99.90;;;;;;5052255;28;20220;-67
2022/07/08 03:27:55;;;;;;;0.40;0.40;;;13.50;99.90;;;;;;5035694;28;20190;-67
2022/07/08 03:30:21;;;;;;;0.40;0.40;;;13.70;99.90;;;;;;5035399;28;20568;-67
2022/07/08 03:32:47;;;;;;;0.30;0.30;;;13.80;99.90;;;;;;5043335;28;20197;-67
2022/07/08 03:35:13;;;;;;;0.30;0.30;;;13.70;99.90;;;;;;5055411;28;20197;-67
2022/07/08 03:37:42;;;;;;;0.32;0.32;;;13.60;99.90;;;;;;5054886;28;20227;-67
2022/07/08 03:42:54;;;;;;;0.55;0.55;;;13.70;99.90;;;;;;5053807;28;20200;-67
2022/07/08 03:45:19;;;;;;;0.30;0.30;;;13.70;99.90;;;;;;5035560;28;20194;-67
2022/07/08 03:47:45;;;;;;;0.35;0.35;;;13.60;99.90;;;;;;5035892;28;20236;-67
2022/07/08 03:50:11;;;;;;;0.40;0.40;;;13.50;99.90;;;;;;5036026;28;20206;-67
2022/07/08 03:52:37;;;;;;;0.40;0.40;;;13.60;99.90;;;;;;5035513;28;20743;-67
2022/07/08 03:55:03;;;;;;;0.40;0.40;;;13.80;99.90;;;;;;5025679;28;20229;-67
2022/07/08 03:57:29;;;;;;;0.50;0.50;;;13.90;99.90;;;;;;5055114;28;20201;-67
2022/07/08 03:59:55;;;;;;;0.40;0.40;;;13.90;99.90;;;;;;5055596;28;20213;-67
2022/07/08 04:02:20;;;;;;;0.40;0.40;;;14.00;99.90;;;;;;5054649;28;20197;-67
2022/07/08 04:04:46;;;;;;;0.30;0.30;;;14.00;99.90;;;;;;5037063;28;20200;-68
2022/07/08 04:07:11;;;;;;;0.30;0.30;;;14.00;99.90;;;;;;5055018;28;20347;-66
2022/07/08 04:09:37;;;;;;;0.32;0.32;;;13.80;99.90;;;;;;5055533;28;20616;-67
2022/07/08 04:12:03;;;;;;;0.40;0.40;;;13.70;99.90;;;;;;5055186;28;20221;-67
2022/07/08 04:14:29;;;;;;;0.30;0.30;;;13.50;99.90;;;;;;5054975;28;20225;-67
2022/07/08 04:16:54;;;;;;;0.40;0.40;;;13.60;99.90;;;;;;5055359;28;20236;-66
2022/07/08 04:19:20;;;;;;;0.40;0.40;;;13.90;99.90;;;;;;5054617;28;20263;-68
2022/07/08 04:21:46;;;;;;;0.38;0.38;;;14.20;99.90;;;;;;5050744;28;20225;-67
2022/07/08 04:24:12;;;;;;;0.30;0.30;;;14.30;99.90;;;;;;5017352;28;20305;-67
2022/07/08 04:26:37;;;;;;;1.30;0.60;;;14.30;99.90;;;;;;5034888;28;20226;-66
2022/07/08 04:29:03;;;;;;;0.40;0.40;;;14.40;99.90;;;;;;5042304;28;20609;-67
2022/07/08 04:31:29;;;;;;;0.30;0.30;;;14.50;99.90;;;;;;5054258;28;20197;-66
2022/07/08 04:33:55;;;;;;;0.30;0.30;;;14.80;99.90;;;;;;5054938;28;20197;-67
2022/07/08 04:36:21;;;;;;;1.75;0.95;;;15.00;99.90;;;;;;5054467;28;20604;-67
2022/07/08 04:38:48;;;;;;;0.40;0.40;;;15.10;99.90;;;;;;5054673;28;20197;-67
2022/07/08 04:41:13;;;;;;;0.30;0.30;;;15.30;99.90;;;;;;5035974;28;20582;-66
2022/07/08 04:43:39;;;;;;;0.32;0.32;;;15.50;99.90;;;;;;5034510;28;20198;-67
2022/07/08 04:46:05;;;;;;;0.20;0.20;;;15.50;99.90;;;;;;5034521;28;20190;-67
2022/07/08 04:48:31;;;;;;;0.32;0.32;;;15.60;99.90;;;;;;5016468;28;20251;-67
2022/07/08 04:50:57;;;;;;;0.50;0.50;;;15.60;99.90;;;;;;5022025;28;20625;-68
2022/07/08 04:53:23;;;;;;;0.30;0.30;;;15.70;99.90;;;;;;5054301;28;20201;-68
2022/07/08 04:55:49;;;;;;;0.30;0.30;;;15.80;99.90;;;;;;5054278;28;20200;-67
2022/07/08 04:58:15;;;;;;;0.30;0.30;;;16.00;99.90;;;;;;5053978;28;20198;-68
2022/07/08 05:00:41;;;;;;;0.30;0.30;;;16.00;99.90;;;;;;5053209;28;20216;-67
2022/07/08 05:03:06;;;;;;;1.05;0.60;;;16.30;99.90;;;;;;5054089;28;20201;-66
2022/07/08 05:05:33;;;;;;;0.30;0.30;;;16.40;99.90;;;;;;5049999;28;20190;-67
2022/07/08 05:08:00;;;;;;;0.30;0.30;;;16.30;99.90;;;;;;5034063;28;20247;-67
2022/07/08 05:10:26;;;;;;;0.85;0.73;;;16.40;99.90;;;;;;5034064;28;20198;-67
2022/07/08 05:12:52;;;;;;;0.30;0.30;;;16.50;99.90;;;;;;5033714;28;20205;-67
2022/07/08 05:15:19;;;;;;;0.30;0.30;;;16.50;99.90;;;;;;5033759;28;20654;-67
2022/07/08 05:17:45;;;;;;;0.80;0.38;;;16.50;99.90;;;;;;5016155;28;20533;-67
2022/07/08 05:20:11;;;;;;;0.30;0.30;;;16.50;99.90;;;;;;5033606;28;20222;-67
2022/07/08 05:22:37;;;;;;;0.45;0.45;;;16.50;99.90;;;;;;5033339;28;20669;-67
2022/07/08 05:25:08;;;;;;;0.20;0.20;;;16.70;99.90;;;;;;5039243;28;20196;-67
2022/07/08 05:27:34;;;;;;;0.20;0.20;;;16.90;99.90;;;;;;5053597;28;20189;-67
2022/07/08 05:30:01;;;;;;;0.30;0.30;;;17.00;99.90;;;;;;5053512;28;20190;-67
2022/07/08 05:32:27;;;;;;;0.30;0.30;;;17.10;99.90;;;;;;5053405;28;20197;-67
2022/07/08 05:34:52;;;;;;;0.20;0.20;;;17.10;99.90;;;;;;5053882;28;20186;-66
2022/07/08 05:37:19;;;;;;;0.20;0.20;;;17.20;99.90;;;;;;5036951;28;20669;-67
2022/07/08 05:39:44;;;;;;;0.30;0.30;;;17.30;99.90;;;;;;5032981;28;20577;-67
2022/07/08 05:42:11;;;;;;;0.90;0.55;;;17.40;99.90;;;;;;5033082;28;20206;-67
2022/07/08 05:44:38;;;;;;;0.28;0.28;;;17.50;99.90;;;;;;5033625;28;20727;-67
2022/07/08 05:47:05;;;;;;;0.20;0.20;;;17.60;99.90;;;;;;5033407;28;20216;-67
2022/07/08 05:49:31;;;;;;;0.30;0.30;;;17.80;99.90;;;;;;5015255;28;20237;-67
2022/07/08 05:51:57;;;;;;;0.20;0.20;;;18.00;99.90;;;;;;5033392;28;20571;-67
2022/07/08 05:54:23;;;;;;;0.30;0.30;;;18.10;99.90;;;;;;5033209;28;20205;-66
2022/07/08 05:56:48;;;;;;;0.20;0.20;;;18.10;99.90;;;;;;5032904;28;20285;-67
2022/07/08 05:59:14;;;;;;;0.30;0.30;;;18.10;99.90;;;;;;5015105;28;20634;-67
2022/07/08 06:01:40;;;;;;;0.30;0.30;;;18.10;99.90;;;;;;5014600;28;20214;-67
2022/07/08 06:04:06;;;;;;;0.20;0.20;;;18.00;99.90;;;;;;5033092;28;20209;-67
2022/07/08 06:06:32;;;;;;;0.20;0.20;;;18.00;99.90;;;;;;5044411;28;20212;-67
2022/07/08 06:08:57;;;;;;;0.20;0.20;;;18.00;99.90;;;;;;5052549;28;20661;-67
2022/07/08 06:11:23;;;;;;;0.28;0.28;;;18.10;99.90;;;;;;5052175;28;20762;-68
2022/07/08 06:13:49;;;;;;;0.40;0.32;;;18.30;99.90;;;;;;5053092;28;20190;-67
2022/07/08 06:16:15;;;;;;;0.28;0.28;;;18.60;99.90;;;;;;5033003;28;20201;-67
2022/07/08 06:18:41;;;;;;;0.30;0.30;;;18.60;99.90;;;;;;5032267;28;20275;-68
2022/07/08 06:21:07;;;;;;;0.30;0.30;;;18.80;99.90;;;;;;5032517;28;20229;-67
2022/07/08 06:23:34;;;;;;;0.63;0.45;;;19.00;99.90;;;;;;5032662;28;20190;-67
2022/07/08 06:26:00;;;;;;;0.30;0.30;;;18.90;99.90;;;;;;5032352;28;20214;-66
2022/07/08 06:28:27;;;;;;;0.40;0.40;;;19.00;99.90;;;;;;5032155;28;20627;-67
2022/07/08 06:30:52;;;;;;;0.20;0.20;;;19.10;99.90;;;;;;5032634;28;20286;-67
2022/07/08 06:33:18;;;;;;;0.20;0.20;;;19.20;99.90;;;;;;5046998;28;20236;-68
2022/07/08 06:35:43;;;;;;;0.20;0.20;;;19.20;99.90;;;;;;5052786;28;20193;-67
2022/07/08 06:38:10;;;;;;;0.20;0.20;;;19.10;99.90;;;;;;5051779;28;20205;-67
2022/07/08 06:40:35;;;;;;;0.20;0.20;;;19.20;99.90;;;;;;5034427;28;20204;-66
2022/07/08 06:43:02;;;;;;;0.20;0.20;;;19.20;99.90;;;;;;5049913;28;20193;-67
2022/07/08 06:45:31;;;;;;;0.20;0.20;;;19.30;99.90;;;;;;5032035;28;20661;-67
2022/07/08 06:48:00;;;;;;;0.32;0.32;;;19.40;99.90;;;;;;5032079;28;20193;-68
2022/07/08 06:50:26;;;;;;;0.22;0.22;;;19.50;99.90;;;;;;5032617;28;20192;-68
2022/07/08 06:52:52;;;;;;;0.30;0.30;;;19.60;99.90;;;;;;5032217;28;20280;-70
2022/07/08 06:55:18;;;;;;;0.30;0.30;;;19.70;99.90;;;;;;5032352;28;20685;-68
2022/07/08 06:57:44;;;;;;;0.20;0.20;;;19.60;99.90;;;;;;5013826;28;20202;-67
2022/07/08 07:00:10;;;;;;;0.28;0.28;;;19.60;99.90;;;;;;5031749;28;20202;-67
2022/07/08 07:02:36;;;;;;;1.00;0.45;;;19.60;99.90;;;;;;5031693;28;20221;-67
2022/07/08 07:05:02;;;;;;;0.20;0.20;;;19.80;99.90;;;;;;5031922;28;20194;-67
2022/07/08 07:07:28;;;;;;;0.70;0.40;;;19.70;99.90;;;;;;5051448;28;20205;-67
2022/07/08 07:09:54;;;;;;;0.20;0.20;;;19.70;99.90;;;;;;5051995;28;20193;-67
2022/07/08 07:12:20;;;;;;;0.25;0.25;;;19.70;99.90;;;;;;5033301;28;20201;-67
2022/07/08 07:14:46;;;;;;;0.20;0.20;;;19.70;99.90;;;;;;5032469;28;20616;-67
2022/07/08 07:17:12;;;;;;;0.30;0.30;;;19.60;99.90;;;;;;5034753;28;20201;-67
2022/07/08 07:19:38;;;;;;;1.60;0.40;;;19.60;99.90;;;;;;5051557;28;20588;-67
2022/07/08 07:22:04;;;;;;;0.30;0.30;;;19.50;99.90;;;;;;5051822;28;20243;-67
2022/07/08 07:24:30;;;;;;;0.20;0.20;;;19.60;99.90;;;;;;5051402;28;20655;-68
2022/07/08 07:26:55;;;;;;;0.20;0.20;;;19.80;99.90;;;;;;5051698;28;20281;-67
2022/07/08 07:29:21;;;;;;;0.20;0.20;;;19.80;99.90;;;;;;5038149;28;20198;-67
2022/07/08 07:31:47;;;;;;;0.20;0.20;;;19.70;99.90;;;;;;5031497;28;20202;-67
2022/07/08 07:34:13;;;;;;;0.20;0.20;;;19.50;99.90;;;;;;5031189;28;20198;-67
2022/07/08 07:36:39;;;;;;;0.20;0.20;;;19.50;99.90;;;;;;5030949;28;20616;-67
2022/07/08 07:39:04;;;;;;;0.22;0.22;;;19.50;99.90;;;;;;5030892;28;20194;-68
2022/07/08 07:41:30;;;;;;;0.40;0.40;;;19.30;99.90;;;;;;5030515;28;20236;-67
2022/07/08 07:43:56;;;;;;;0.20;0.20;;;19.30;99.90;;;;;;5030974;28;20182;-67
2022/07/08 07:46:21;;;;;;;0.30;0.30;;;19.40;99.90;;;;;;5030812;28;20277;-67
2022/07/08 07:48:47;;;;;;;0.30;0.30;;;19.40;99.90;;;;;;5030831;28;20194;-67
2022/07/08 07:51:13;;;;;;;0.30;0.30;;;19.20;99.90;;;;;;5030845;28;20198;-67
2022/07/08 07:53:38;;;;;;;0.30;0.30;;;19.30;99.90;;;;;;5030825;28;20202;-66
2022/07/08 07:56:04;;;;;;;0.57;0.50;;;19.40;99.90;;;;;;5031172;28;20202;-67
2022/07/08 07:58:30;;;;;;;0.20;0.20;;;19.20;99.90;;;;;;5030992;28;20206;-67
2022/07/08 08:00:56;;;;;;;0.20;0.20;;;19.10;99.90;;;;;;5031149;28;20206;-67
2022/07/08 08:03:22;;;;;;;0.20;0.20;;;18.90;99.90;;;;;;5013019;28;20277;-67
2022/07/08 08:05:48;;;;;;;0.30;0.30;;;18.80;99.90;;;;;;5018769;28;20201;-67
2022/07/08 08:08:14;;;;;;;0.40;0.30;;;18.70;99.90;;;;;;5034558;28;20197;-67
2022/07/08 08:10:40;;;;;;;0.47;0.40;;;19.10;99.90;;;;;;5034783;28;20193;-67
2022/07/08 08:13:05;;;;;;;0.20;0.20;;;19.80;99.90;;;;;;5016734;28;20198;-68
2022/07/08 08:15:32;;;;;;;0.25;0.25;;;20.30;99.90;;;;;;5036324;28;20609;-66
2022/07/08 08:17:59;;;;;;;0.20;0.20;;;20.70;99.90;;;;;;5054240;28;20202;-67
2022/07/08 08:20:26;;;;;;;0.30;0.30;;;20.90;99.90;;;;;;5054763;28;20307;-68
2022/07/08 08:22:52;;;;;;;0.20;0.20;;;20.80;99.90;;;;;;5054415;28;20236;-67
2022/07/08 08:25:20;;;;;;;0.30;0.30;;;20.60;99.90;;;;;;5025250;28;20229;-68
2022/07/08 08:27:46;;;;;;;0.20;0.20;;;20.30;99.90;;;;;;5034490;28;20630;-67
2022/07/08 08:30:13;;;;;;;0.28;0.28;;;20.30;99.90;;;;;;5016980;28;20195;-67
2022/07/08 08:32:39;;;;;;;0.20;0.20;;;20.10;99.90;;;;;;5034302;28;20260;-67
2022/07/08 08:35:05;;;;;;;0.20;0.20;;;20.10;99.90;;;;;;5034454;28;20194;-67
2022/07/08 08:37:32;;;;;;;0.20;0.20;;;20.40;99.90;;;;;;5052757;28;20200;-67
2022/07/08 08:40:05;;;;;;;0.20;0.20;;;20.20;99.90;;;;;;5036501;28;20213;-67
2022/07/08 08:42:32;;;;;;;0.25;0.25;;;20.60;99.90;;;;;;5054155;28;20281;-67
2022/07/08 08:44:59;;;;;;;0.20;0.20;;;20.80;99.90;;;;;;5036643;28;20277;-68
2022/07/08 08:47:30;;;;;;;0.20;0.20;;;21.40;99.90;;;;;;5054005;28;20208;-68
2022/07/08 08:49:57;;;;;;;0.90;0.82;;;21.90;99.90;;;;;;5054312;28;20213;-67
2022/07/08 08:52:23;;;;;;;0.22;0.22;;;21.80;99.90;;;;;;5054259;28;20231;-68
2022/07/08 08:54:51;;;;;;;0.30;0.30;;;21.80;99.90;;;;;;5053749;28;20547;-68
2022/07/08 08:57:20;;;;;;;0.30;0.30;;;21.90;99.90;;;;;;5054302;28;20197;-69
2022/07/08 08:59:46;;;;;;;0.20;0.20;;;22.30;99.90;;;;;;5053763;28;20251;-68
2022/07/08 09:02:12;;;;;;;0.30;0.30;;;22.60;99.90;;;;;;5054364;28;20186;-68
2022/07/08 09:04:38;;;;;;;0.20;0.20;;;22.70;99.90;;;;;;5053065;28;20193;-68
2022/07/08 09:07:04;;;;;;;0.20;0.20;;;23.10;99.90;;;;;;5053902;28;20557;-68
2022/07/08 09:09:30;;;;;;;0.20;0.20;;;23.10;99.90;;;;;;5034618;28;20198;-68
2022/07/08 09:11:56;;;;;;;0.25;0.25;;;23.00;99.90;;;;;;5033778;28;20615;-68
2022/07/08 09:14:23;;;;;;;1.27;0.52;;;23.10;99.90;;;;;;5015666;28;20209;-69
2022/07/08 09:17:09;;;;;;;0.20;0.20;;;23.20;99.90;;;;;;5032514;28;20236;-69
2022/07/08 09:19:37;;;;;;;0.20;0.20;;;23.50;99.90;;;;;;5024993;28;20288;-68
2022/07/08 09:22:03;;;;;;;0.47;0.35;;;23.50;99.90;;;;;;5083040;28;20228;-68
2022/07/08 09:24:29;;;;;;;0.10;0.10;;;23.50;99.90;;;;;;5093987;28;20196;-68
2022/07/08 09:26:55;;;;;;;0.10;0.10;;;23.50;99.90;;;;;;5093264;28;20198;-68
2022/07/08 09:29:21;;;;;;;0.20;0.20;;;23.80;99.90;;;;;;5092902;28;20184;-68
2022/07/08 09:31:47;;;;;;;0.10;0.10;;;24.40;99.90;;;;;;5091121;28;20249;-68
2022/07/08 09:34:16;;;;;;;0.20;0.20;;;24.10;99.90;;;;;;5073185;28;20268;-68
2022/07/08 09:36:49;;;;;;;0.20;0.20;;;23.40;99.90;;;;;;5071872;28;20291;-68
2022/07/08 09:39:28;;;;;;;0.20;0.20;;;22.30;99.90;;;;;;5071592;28;20232;-68
2022/07/08 09:41:53;;;;;;;0.20;0.20;;;22.20;99.90;;;;;;5071655;28;20208;-67
2022/07/08 09:44:22;;;;;;;0.38;0.38;;;22.70;99.90;;;;;;5072877;28;20562;-68
2022/07/08 09:46:49;;;;;;;0.20;0.20;;;23.40;99.90;;;;;;5073014;28;20211;-69
2022/07/08 09:49:32;;;;;;;0.75;0.35;;;23.70;99.90;;;;;;5072864;28;20189;-68
2022/07/08 09:51:58;;;;;;;0.20;0.20;;;23.10;99.90;;;;;;5059260;28;20236;-69
2022/07/08 09:54:25;;;;;;;0.20;0.20;;;23.20;99.90;;;;;;5052622;28;20706;-68
2022/07/08 09:57:05;;;;;;;0.13;0.13;;;23.50;99.90;;;;;;5051377;28;20210;-68
2022/07/08 09:59:33;;;;;;;0.20;0.20;;;23.80;99.90;;;;;;5057612;28;20626;-67
2022/07/08 10:01:59;;;;;;;0.20;0.20;;;23.50;99.90;;;;;;5072467;28;20313;-68
2022/07/08 10:04:25;;;;;;;0.20;0.20;;;23.50;99.90;;;;;;5070665;28;20627;-68
2022/07/08 10:06:54;;;;;;;0.25;0.17;;;23.50;99.90;;;;;;5061905;28;20248;-69
2022/07/08 10:09:21;;;;;;;0.35;0.35;;;23.40;99.90;;;;;;5051964;28;20273;-68
2022/07/08 10:11:48;;;;;;;0.43;0.43;;;24.00;99.90;;;;;;5052157;28;20236;-67
2022/07/08 10:14:14;;;;;;;0.40;0.40;;;24.70;99.90;;;;;;5052043;28;20235;-68
2022/07/08 10:16:42;;;;;;;0.30;0.30;;;24.10;99.90;;;;;;5054933;28;20687;-68
2022/07/08 10:19:14;;;;;;;0.20;0.20;;;23.30;99.90;;;;;;5092234;28;20750;-68
2022/07/08 10:21:45;;;;;;;0.30;0.25;;;22.40;99.90;;;;;;5092126;28;20211;-68
2022/07/08 10:24:17;;;;;;;0.20;0.20;;;22.00;99.90;;;;;;5092173;28;20215;-68
2022/07/08 10:26:44;;;;;;;0.22;0.22;;;21.70;99.90;;;;;;5091903;28;20692;-67
2022/07/08 10:29:13;;;;;;;0.52;0.35;;;21.20;99.90;;;;;;5079248;28;20682;-68
2022/07/08 10:31:43;;;;;;;0.20;0.20;;;21.50;99.90;;;;;;5072381;28;20272;-68
2022/07/08 10:34:10;;;;;;;0.20;0.20;;;22.40;99.90;;;;;;5070715;28;20201;-68
2022/07/08 10:36:47;;;;;;;0.25;0.25;;;22.90;99.90;;;;;;5072002;28;20663;-68
2022/07/08 10:39:13;;;;;;;0.35;0.35;;;22.40;99.90;;;;;;5071927;28;20188;-68
2022/07/08 10:41:40;;;;;;;0.20;0.20;;;21.70;99.90;;;;;;5071774;28;20209;-67
2022/07/08 10:44:06;;;;;;;0.20;0.20;;;21.40;99.90;;;;;;5071894;28;20239;-69
2022/07/08 10:46:31;;;;;;;0.20;0.20;;;22.10;99.90;;;;;;5071487;28;20193;-68
2022/07/08 10:48:58;;;;;;;0.20;0.20;;;22.90;99.90;;;;;;5071951;28;20193;-68
2022/07/08 10:51:26;;;;;;;0.20;0.20;;;23.50;99.90;;;;;;5071497;28;20284;-69
2022/07/08 10:53:58;;;;;;;0.30;0.30;;;24.20;99.90;;;;;;5071426;28;20561;-68
2022/07/08 10:56:54;;;;;;;0.17;0.17;;;24.90;99.90;;;;;;5071209;28;20193;-68
2022/07/08 10:59:32;;;;;;;0.45;0.35;;;24.70;99.90;;;;;;5069856;28;20248;-70
2022/07/08 11:02:06;;;;;;;0.52;0.20;;;23.70;99.90;;;;;;5070276;28;20295;-69
2022/07/08 11:04:35;;;;;;;0.32;0.20;;;22.90;99.90;;;;;;5071275;28;20187;-68
2022/07/08 11:07:16;;;;;;;0.30;0.30;;;23.50;99.90;;;;;;5055892;28;20197;-68
2022/07/08 11:09:44;;;;;;;0.20;0.20;;;23.80;99.90;;;;;;5049998;28;20674;-68
2022/07/08 11:12:17;;;;;;;0.20;0.20;;;24.00;99.90;;;;;;5051584;28;20186;-68
2022/07/08 11:14:50;;;;;;;0.25;0.25;;;23.50;99.90;;;;;;5084160;28;20192;-68
2022/07/08 11:17:20;;;;;;;0.30;0.30;;;24.00;99.90;;;;;;5091575;28;20275;-66
2022/07/08 11:19:48;;;;;;;0.28;0.28;;;24.80;99.90;;;;;;5091098;28;20223;-68
2022/07/08 11:22:14;;;;;;;0.10;0.10;;;24.30;99.90;;;;;;5091779;28;20393;-67
2022/07/08 11:24:43;;;;;;;0.20;0.20;;;23.40;99.90;;;;;;5086178;28;20189;-68
2022/07/08 11:27:09;;;;;;;0.10;0.10;;;23.70;99.90;;;;;;5071305;28;20196;-68
2022/07/08 11:29:35;;;;;;;0.10;0.10;;;24.00;99.90;;;;;;5070912;28;20275;-68
2022/07/08 11:32:03;;;;;;;0.10;0.10;;;24.60;99.90;;;;;;5071482;28;20185;-69
2022/07/08 11:34:29;;;;;;;0.10;0.10;;;25.10;99.90;;;;;;5070955;28;20242;-68
2022/07/08 11:36:56;;;;;;;0.20;0.20;;;25.60;99.90;;;;;;5071184;28;20193;-68
2022/07/08 11:39:22;;;;;;;0.10;0.10;;;25.60;99.90;;;;;;5072200;28;20192;-68
2022/07/08 11:41:48;;;;;;;0.10;0.10;;;25.90;99.90;;;;;;5075127;28;20672;-68
2022/07/08 11:44:18;;;;;;;0.10;0.10;;;26.40;99.90;;;;;;5075061;28;20185;-69
2022/07/08 11:46:51;;;;;;;0.10;0.10;;;26.70;99.90;;;;;;5075011;28;20209;-68
2022/07/08 11:49:18;;;;;;;0.10;0.10;;;27.00;99.90;;;;;;5074749;28;20200;-69
2022/07/08 11:51:51;;;;;;;0.20;0.20;;;27.00;97.80;;;;;;5075217;28;20212;-68
2022/07/08 11:54:20;;;;;;;0.05;0.05;;;27.10;98.80;;;;;;5074922;28;20224;-68
2022/07/08 11:56:46;;;;;;;0.10;0.10;;;27.40;99.90;;;;;;5074969;28;20189;-67
2022/07/08 11:59:12;;;;;;;0.10;0.10;;;27.30;98.70;;;;;;5074297;28;20235;-66
2022/07/08 12:01:38;;;;;;;0.10;0.10;;;27.40;99.90;;;;;;5074166;28;20208;-66
2022/07/08 12:04:08;;;;;;;0.10;0.10;;;27.60;99.90;;;;;;5073539;28;20565;-65
2022/07/08 12:06:34;;;;;;;0.10;0.10;;;27.70;97.60;;;;;;5062415;28;20193;-68
2022/07/08 12:09:09;;;;;;;0.10;0.10;;;27.90;96.60;;;;;;5054508;28;20315;-69
2022/07/08 12:11:44;;;;;;;0.10;0.10;;;28.10;93.20;;;;;;5054331;28;20219;-68
2022/07/08 12:14:10;;;;;;;0.20;0.20;;;28.40;93.80;;;;;;5054259;28;20273;-68
2022/07/08 12:16:54;;;;;;;0.10;0.10;;;28.50;92.60;;;;;;5052907;28;20193;-69
2022/07/08 12:19:30;;;;;;;0.00;0.00;;;28.40;92.30;;;;;;5049737;28;20585;-69
2022/07/08 12:21:58;;;;;;;0.10;0.10;;;28.60;90.50;;;;;;5047793;28;20204;-71
2022/07/08 12:24:25;;;;;;;0.10;0.10;;;28.60;91.80;;;;;;5036384;28;20189;-68
2022/07/08 12:26:59;;;;;;;0.20;0.20;;;28.10;93.90;;;;;;5054189;28;20196;-68
2022/07/08 12:29:26;;;;;;;0.00;0.00;;;27.90;93.80;;;;;;5054275;28;20196;-67
2022/07/08 12:31:53;;;;;;;0.10;0.10;;;28.00;95.10;;;;;;5054039;28;20231;-67
2022/07/08 12:34:21;;;;;;;0.10;0.10;;;28.00;93.00;;;;;;5036121;28;20193;-69
2022/07/08 12:36:48;;;;;;;0.00;0.00;;;28.10;91.70;;;;;;5053862;28;20196;-69
2022/07/08 12:39:18;;;;;;;0.10;0.10;;;27.80;91.10;;;;;;5054029;28;20232;-68
2022/07/08 12:42:07;;;;;;;0.10;0.10;;;27.50;91.10;;;;;;5053962;28;20205;-69
2022/07/08 12:44:39;;;;;;;0.10;0.10;;;27.40;93.70;;;;;;5053914;28;20234;-68
2022/07/08 12:47:08;;;;;;;0.10;0.10;;;27.50;91.10;;;;;;5053576;28;20189;-68
2022/07/08 12:49:35;;;;;;;0.15;0.15;;;28.00;93.90;;;;;;5053421;28;20675;-68